Enfield Center, New Hampshire
Current Conditions -  °F | °C
As of 3:03 PM on Monday 22 Dec 2014 (Local Time) from KLEB Reporting Station
Overcast Overcast  
Wind Chill:   Ceiling: 2400
Heat Index:   Visibility: 9mi
Dew Point: -3°   Wind: 0mph
Humidity: 72%   Direction: NA
Pressure: 30.3"   Gusts: NA
Location:  43.59°N, 72.11°W
Report Text: KLEB 222003Z 00000KT 9SM BKN024 OVC040 02/M03 A3030 RMK AO2 T00171028
Loading
Personal Weather Stations






























Interactive Weather Map New forecast layout! Learn more

10-Day Weather Forecast

Advertisements
Track Severe Weather on mobile